This is the latest recevied weather packets stored in our database for station/object DG4MJS-10. If no packets are shown the sender has not sent any weather packets the latest 10 day(s).
| Time | Temp. | Humidity | Pressure | Rain* | Wind** | Luminosity | Snow |
|---|---|---|---|---|---|---|---|
| 1777846508 | 16.11° C | 49% | 1014.6 hPa | - | - | - | - |
| 1777845608 | 16.11° C | 49% | 1014.4 hPa | - | - | - | - |
| 1777844708 | 16.11° C | 49% | 1014.4 hPa | - | - | - | - |
| 1777843808 | 16.67° C | 47% | 1014.2 hPa | - | - | - | - |
| 1777842908 | 16.67° C | 51% | 1014.1 hPa | - | - | - | - |
| 1777842007 | 16.67° C | 53% | 1013.8 hPa | - | - | - | - |
| 1777841107 | 16.67° C | 54% | 1013.7 hPa | - | - | - | - |
| 1777840207 | 16.11° C | 55% | 1013.3 hPa | - | - | - | - |
| 1777839307 | 16.67° C | 54% | 1013 hPa | - | - | - | - |
| 1777838407 | 16.67° C | 54% | 1013 hPa | - | - | - | - |
| 1777837507 | 16.11° C | 56% | 1012.6 hPa | - | - | - | - |
| 1777836607 | 16.11° C | 57% | 1012.4 hPa | - | - | - | - |
| 1777835707 | 16.67° C | 56% | 1012.3 hPa | - | - | - | - |
| 1777834807 | 16.67° C | 55% | 1012.1 hPa | - | - | - | - |
| 1777833907 | 16.67° C | 55% | 1012 hPa | - | - | - | - |
| 1777833007 | 17.22° C | 55% | 1011.8 hPa | - | - | - | - |
| 1777832107 | 16.67° C | 55% | 1011.7 hPa | - | - | - | - |
| 1777831206 | 16.67° C | 55% | 1011.7 hPa | - | - | - | - |
| 1777830306 | 17.22° C | 54% | 1011.6 hPa | - | - | - | - |
| 1777829406 | 16.67° C | 51% | 1011.8 hPa | - | - | - | - |
| 1777828506 | 16.67° C | 50% | 1011.8 hPa | - | - | - | - |
| 1777827606 | 16.67° C | 49% | 1011.8 hPa | - | - | - | - |
| 1777826706 | 17.22° C | 48% | 1011.9 hPa | - | - | - | - |
| 1777825805 | 17.22° C | 47% | 1011.7 hPa | - | - | - | - |
| 1777824906 | 17.78° C | 42% | 1011.8 hPa | - | - | - | - |
* Rain since midnight (hover to see other rain measurements)
** Current wind speed in m/s (hover to see current wind gust speed)